AirNav   Everest Fuels
 
 1200 users online  

5VA5 Chimney View Airport
Fredericksburg, Virginia, USA

GOING TO FREDERICKSBURG?


FAA INFORMATION EFFECTIVE 08 OCTOBER 2020

Location

FAA Identifier: 5VA5
Lat/Long: 38-24-12.4480N 077-18-56.9320W
38-24.207467N 077-18.948867W
38.4034578,-77.3158144
(estimated)
Elevation: 25 ft. / 8 m (estimated)
Variation: 09W (1985)
From city: 10 miles NE of FREDERICKSBURG, VA
Time zone: UTC -4 (UTC -5 during Standard Time)
Zip code: 22554

Airport Operations

Airport use: Private use. Permission required prior to landing
Activation date: 06/1979
Control tower: no
ARTCC: WASHINGTON CENTER
FSS: LEESBURG FLIGHT SERVICE STATION
Attendance: UNATNDD
Wind indicator: yes
Segmented circle: no

Airport Communications

WX AWOS-3 at RMN (7 nm W): 126.325 (540-657-8283)
WX AWOS-3 at EZF (10 nm SW): 128.125 (540-372-6794)

Nearby radio navigation aids

VOR radial/distance  VOR name  Freq  Var
BRVr032/4.4BROOKE VORTAC114.5009W
CSNr125/29.5CASANOVA VORTAC116.3006W
DCAr215/30.3WASHINGTON VOR/DME111.0009W
ADWr231/32.1ANDREWS VORTAC113.1010W
OTTr246/32.4NOTTINGHAM VORTAC113.7010W
AMLr175/32.6ARMEL VOR/DME113.5008W

 
NDB name  Hdg/Dist  Freq  Var  ID
SHANNON048/10.423710WEZF . --.. ..-.
DAVEE221/18.322309WDAA -.. .- .-
OXONN223/25.633211WDCA -.. -.-. .-
NAILR106/27.935110WMSQ -- ... --.-
GEORGETOWN205/32.832309WGTN --. - -.

Airport Services

Runway Information

Runway 9/27

Dimensions: 1400 x 60 ft. / 427 x 18 m
TOTAL WIDTH OF CLEARED AREA IS 200'.
Surface: turf
Operational restrictions: LNDG RWY 27 ONLY; TKOF RWY 09 ONLY.
RUNWAY 9  RUNWAY 27
Traffic pattern: leftleft
Obstructions: trees/roadnone

Airport Ownership and Management from official FAA records

Ownership: Privately-owned
Owner: SHARON WATSON
1273 BRENT POINT RD
STAFFORD, VA 22554
Phone 540-659-6284
Manager: SHARON WATSON
1273 BRENT POINT RD
STAFFORD, VA 22554
Phone 540-659-6284

Additional Remarks

FOR CD CTC POTOMAC APCH AT 866-709-4993.

Instrument Procedures

There are no published instrument procedures at 5VA5.

Some nearby airports with instrument procedures:

KNYG - Quantico Marine Corps Airfield / Turner Field (6 nm N)
KRMN - Stafford Regional Airport (7 nm W)
KEZF - Shannon Airport (10 nm SW)
2W5 - Maryland Airport (16 nm NE)
KDAA - Davison Army Airfield (20 nm N)
 
Loc | Ops | Rwys | IFR | FBO | Links
Com | Nav | Svcs | Stats | Notes
Area around 5VA5 (Chimney View Airport)
 
Road maps at: MapQuest Bing Google
 
Aerial photo
No photo
 
Sectional chart

 
Airport distance calculator
Flying to Chimney View Airport? Find the distance to fly.

From to 5VA5

Sunrise and sunset
Times for 21-Oct-2020
 Local
(UTC-4)
 Zulu
(UTC)
Morning civil twilight06:5910:59
Sunrise07:2611:26
Sunset18:2122:21
Evening civil twilight18:4822:48

Current date and time
Zulu (UTC)  21-Oct-2020 22:34:00
Local (UTC-4)  21-Oct-2020 18:34:00
 
METAR
KNYG 
6nm N 
212156Z AUTO 19004KT 9SM CLR 22/19 A3019 RMK AO2 SLP225 T02220189 $
KRMN 
7nm W 
212215Z AUTO 14003KT 10SM CLR 24/16 A3023 RMK AO2 T02370160
KEZF 
10nm SW 
212215Z AUTO 16004KT 10SM CLR 23/21 A3018 RMK AO2 T02290208
TAF
KNYG 
6nm N 
2121/2221 VRB06KT 9999 SCT030 SCT200 QNH3019INS BECMG 2206/2208 VRB06KT 1600 FG SCT002 QNH3022INS FM221400 VRB06KT 9999 SCT030 QNH3024INS T23/2121Z T17/2206Z
NOTAMs
Click for the latest NOTAMs
NOTAMs are issued by the DoD/FAA and will open in a separate window not controlled by AirNav.

 

 
 

Would you like to see your business listed on this page?

 If your business provides an interesting product or service to pilots, flight crews, aircraft, or users of the Chimney View Airport, you should consider listing it here.  To start the listing process, click on the button below
 
Add a business
 

Other Pages about Chimney View Airport

Update a link
 
Copyright © AirNav, LLC. All rights reserved. Privacy Policy  Contact